sensor_id;sensor_type;location;lat;lon;timestamp;P1;durP1;ratioP1;P2;durP2;ratioP2
29294;SDS011;16305;48.566;8.846;2023-03-31T00:01:29;5.17;;;2.40;;
29294;SDS011;16305;48.566;8.846;2023-03-31T00:03:57;5.00;;;2.43;;
29294;SDS011;16305;48.566;8.846;2023-03-31T00:06:30;7.10;;;2.30;;
29294;SDS011;16305;48.566;8.846;2023-03-31T00:09:02;4.70;;;2.40;;
29294;SDS011;16305;48.566;8.846;2023-03-31T00:11:29;8.83;;;2.27;;
29294;SDS011;16305;48.566;8.846;2023-03-31T00:13:54;7.27;;;2.63;;
29294;SDS011;16305;48.566;8.846;2023-03-31T00:16:20;8.83;;;2.93;;
29294;SDS011;16305;48.566;8.846;2023-03-31T00:18:46;8.03;;;2.67;;
29294;SDS011;16305;48.566;8.846;2023-03-31T00:21:15;9.07;;;2.47;;
29294;SDS011;16305;48.566;8.846;2023-03-31T00:24:03;4.33;;;2.50;;
29294;SDS011;16305;48.566;8.846;2023-03-31T00:26:31;9.43;;;2.70;;
29294;SDS011;16305;48.566;8.846;2023-03-31T00:28:58;4.37;;;2.03;;
29294;SDS011;16305;48.566;8.846;2023-03-31T00:31:24;5.93;;;2.47;;
29294;SDS011;16305;48.566;8.846;2023-03-31T00:33:51;3.97;;;2.20;;
29294;SDS011;16305;48.566;8.846;2023-03-31T00:36:17;9.30;;;2.30;;
29294;SDS011;16305;48.566;8.846;2023-03-31T00:38:48;6.60;;;2.13;;
29294;SDS011;16305;48.566;8.846;2023-03-31T00:41:15;9.10;;;2.30;;
29294;SDS011;16305;48.566;8.846;2023-03-31T00:43:59;5.57;;;2.50;;
29294;SDS011;16305;48.566;8.846;2023-03-31T00:49:11;5.10;;;2.37;;
29294;SDS011;16305;48.566;8.846;2023-03-31T00:51:44;8.97;;;2.70;;
29294;SDS011;16305;48.566;8.846;2023-03-31T00:54:11;6.70;;;2.43;;
29294;SDS011;16305;48.566;8.846;2023-03-31T00:56:39;6.67;;;2.10;;
29294;SDS011;16305;48.566;8.846;2023-03-31T00:59:10;8.43;;;2.07;;
29294;SDS011;16305;48.566;8.846;2023-03-31T01:01:36;5.67;;;2.30;;
29294;SDS011;16305;48.566;8.846;2023-03-31T01:04:06;7.17;;;2.50;;
29294;SDS011;16305;48.566;8.846;2023-03-31T01:06:33;7.43;;;2.40;;
29294;SDS011;16305;48.566;8.846;2023-03-31T01:09:10;8.07;;;2.93;;
29294;SDS011;16305;48.566;8.846;2023-03-31T01:11:38;10.63;;;2.83;;
29294;SDS011;16305;48.566;8.846;2023-03-31T01:14:04;7.57;;;2.57;;
29294;SDS011;16305;48.566;8.846;2023-03-31T01:16:30;8.17;;;2.80;;
29294;SDS011;16305;48.566;8.846;2023-03-31T01:18:57;6.20;;;2.60;;
29294;SDS011;16305;48.566;8.846;2023-03-31T01:35:39;6.80;;;2.60;;
29294;SDS011;16305;48.566;8.846;2023-03-31T01:38:27;7.70;;;2.43;;
29294;SDS011;16305;48.566;8.846;2023-03-31T01:41:15;5.30;;;2.40;;
29294;SDS011;16305;48.566;8.846;2023-03-31T01:46:52;6.33;;;2.50;;
29294;SDS011;16305;48.566;8.846;2023-03-31T01:49:24;9.57;;;2.70;;
29294;SDS011;16305;48.566;8.846;2023-03-31T01:54:59;7.37;;;2.70;;
29294;SDS011;16305;48.566;8.846;2023-03-31T01:57:34;9.60;;;2.50;;
29294;SDS011;16305;48.566;8.846;2023-03-31T02:00:03;5.47;;;2.77;;
29294;SDS011;16305;48.566;8.846;2023-03-31T02:02:44;6.53;;;2.30;;
29294;SDS011;16305;48.566;8.846;2023-03-31T02:05:12;5.73;;;2.50;;
29294;SDS011;16305;48.566;8.846;2023-03-31T02:07:44;5.63;;;2.57;;
29294;SDS011;16305;48.566;8.846;2023-03-31T02:10:14;8.00;;;2.80;;
29294;SDS011;16305;48.566;8.846;2023-03-31T02:12:41;4.83;;;2.13;;
29294;SDS011;16305;48.566;8.846;2023-03-31T02:15:10;7.97;;;2.80;;
29294;SDS011;16305;48.566;8.846;2023-03-31T02:17:39;7.77;;;3.53;;
29294;SDS011;16305;48.566;8.846;2023-03-31T02:20:10;5.80;;;3.00;;
29294;SDS011;16305;48.566;8.846;2023-03-31T02:22:39;5.90;;;3.10;;
29294;SDS011;16305;48.566;8.846;2023-03-31T02:25:10;6.33;;;3.00;;
29294;SDS011;16305;48.566;8.846;2023-03-31T02:27:39;7.10;;;3.60;;
29294;SDS011;16305;48.566;8.846;2023-03-31T02:30:07;7.13;;;3.40;;
29294;SDS011;16305;48.566;8.846;2023-03-31T02:32:38;9.57;;;3.33;;
29294;SDS011;16305;48.566;8.846;2023-03-31T02:35:06;5.80;;;3.20;;
29294;SDS011;16305;48.566;8.846;2023-03-31T02:37:35;5.87;;;3.17;;
29294;SDS011;16305;48.566;8.846;2023-03-31T02:40:06;10.50;;;3.30;;
29294;SDS011;16305;48.566;8.846;2023-03-31T02:42:39;4.13;;;2.93;;
29294;SDS011;16305;48.566;8.846;2023-03-31T02:45:06;5.83;;;3.10;;
29294;SDS011;16305;48.566;8.846;2023-03-31T02:48:03;6.17;;;3.53;;
29294;SDS011;16305;48.566;8.846;2023-03-31T02:50:31;5.63;;;3.03;;
29294;SDS011;16305;48.566;8.846;2023-03-31T02:53:08;6.70;;;3.70;;
29294;SDS011;16305;48.566;8.846;2023-03-31T03:00:57;7.77;;;3.40;;
29294;SDS011;16305;48.566;8.846;2023-03-31T03:03:48;8.67;;;3.03;;
29294;SDS011;16305;48.566;8.846;2023-03-31T03:06:41;7.23;;;2.97;;
29294;SDS011;16305;48.566;8.846;2023-03-31T03:12:46;6.33;;;2.80;;
29294;SDS011;16305;48.566;8.846;2023-03-31T03:15:09;6.27;;;3.13;;
29294;SDS011;16305;48.566;8.846;2023-03-31T03:17:43;6.33;;;3.57;;
29294;SDS011;16305;48.566;8.846;2023-03-31T03:20:11;6.33;;;3.53;;
29294;SDS011;16305;48.566;8.846;2023-03-31T03:22:38;10.97;;;3.40;;
29294;SDS011;16305;48.566;8.846;2023-03-31T03:25:05;7.03;;;3.90;;
29294;SDS011;16305;48.566;8.846;2023-03-31T03:27:31;10.90;;;4.20;;
29294;SDS011;16305;48.566;8.846;2023-03-31T03:29:57;11.40;;;4.00;;
29294;SDS011;16305;48.566;8.846;2023-03-31T03:32:23;9.17;;;4.10;;
29294;SDS011;16305;48.566;8.846;2023-03-31T03:34:48;9.70;;;4.67;;
29294;SDS011;16305;48.566;8.846;2023-03-31T03:37:14;13.97;;;5.30;;
29294;SDS011;16305;48.566;8.846;2023-03-31T03:39:39;13.07;;;6.60;;
29294;SDS011;16305;48.566;8.846;2023-03-31T03:42:05;13.00;;;6.97;;
29294;SDS011;16305;48.566;8.846;2023-03-31T03:44:30;13.67;;;4.80;;
29294;SDS011;16305;48.566;8.846;2023-03-31T03:46:56;11.97;;;4.33;;
29294;SDS011;16305;48.566;8.846;2023-03-31T03:49:21;8.43;;;4.27;;
29294;SDS011;16305;48.566;8.846;2023-03-31T03:51:47;10.57;;;4.63;;
29294;SDS011;16305;48.566;8.846;2023-03-31T03:54:13;12.67;;;6.13;;
29294;SDS011;16305;48.566;8.846;2023-03-31T03:56:38;14.33;;;6.70;;
29294;SDS011;16305;48.566;8.846;2023-03-31T03:59:04;15.70;;;8.17;;
29294;SDS011;16305;48.566;8.846;2023-03-31T04:01:30;14.00;;;7.10;;
29294;SDS011;16305;48.566;8.846;2023-03-31T04:03:55;13.13;;;5.93;;
29294;SDS011;16305;48.566;8.846;2023-03-31T04:06:21;10.40;;;4.80;;
29294;SDS011;16305;48.566;8.846;2023-03-31T04:08:46;9.13;;;4.80;;
29294;SDS011;16305;48.566;8.846;2023-03-31T04:11:13;11.10;;;5.63;;
29294;SDS011;16305;48.566;8.846;2023-03-31T04:13:43;9.23;;;5.57;;
29294;SDS011;16305;48.566;8.846;2023-03-31T04:16:10;11.47;;;5.77;;
29294;SDS011;16305;48.566;8.846;2023-03-31T04:18:36;11.40;;;5.47;;
29294;SDS011;16305;48.566;8.846;2023-03-31T04:21:06;12.50;;;6.00;;
29294;SDS011;16305;48.566;8.846;2023-03-31T04:23:36;9.43;;;5.83;;
29294;SDS011;16305;48.566;8.846;2023-03-31T04:26:03;9.67;;;5.57;;
29294;SDS011;16305;48.566;8.846;2023-03-31T04:28:32;8.80;;;5.13;;
29294;SDS011;16305;48.566;8.846;2023-03-31T04:31:03;12.43;;;6.13;;
29294;SDS011;16305;48.566;8.846;2023-03-31T04:33:33;14.47;;;6.13;;
29294;SDS011;16305;48.566;8.846;2023-03-31T04:36:02;12.93;;;6.00;;
29294;SDS011;16305;48.566;8.846;2023-03-31T04:38:31;13.47;;;5.60;;
29294;SDS011;16305;48.566;8.846;2023-03-31T04:41:00;11.63;;;5.70;;
29294;SDS011;16305;48.566;8.846;2023-03-31T04:43:25;8.80;;;5.43;;
29294;SDS011;16305;48.566;8.846;2023-03-31T04:45:51;10.47;;;5.43;;
29294;SDS011;16305;48.566;8.846;2023-03-31T04:48:16;15.50;;;5.90;;
29294;SDS011;16305;48.566;8.846;2023-03-31T04:50:42;12.33;;;5.60;;
29294;SDS011;16305;48.566;8.846;2023-03-31T04:53:07;10.60;;;5.70;;
29294;SDS011;16305;48.566;8.846;2023-03-31T04:55:33;13.83;;;6.10;;
29294;SDS011;16305;48.566;8.846;2023-03-31T04:57:59;12.07;;;5.77;;
29294;SDS011;16305;48.566;8.846;2023-03-31T05:00:25;9.33;;;6.10;;
29294;SDS011;16305;48.566;8.846;2023-03-31T05:02:51;15.20;;;5.93;;
29294;SDS011;16305;48.566;8.846;2023-03-31T05:05:16;10.33;;;7.03;;
29294;SDS011;16305;48.566;8.846;2023-03-31T05:07:42;12.00;;;6.80;;
29294;SDS011;16305;48.566;8.846;2023-03-31T05:10:07;16.60;;;6.57;;
29294;SDS011;16305;48.566;8.846;2023-03-31T05:12:34;10.90;;;5.50;;
29294;SDS011;16305;48.566;8.846;2023-03-31T05:15:04;14.03;;;6.67;;
29294;SDS011;16305;48.566;8.846;2023-03-31T05:17:30;11.33;;;7.03;;
29294;SDS011;16305;48.566;8.846;2023-03-31T05:19:57;13.70;;;6.60;;
29294;SDS011;16305;48.566;8.846;2023-03-31T05:22:22;11.93;;;6.60;;
29294;SDS011;16305;48.566;8.846;2023-03-31T05:24:48;14.07;;;7.30;;
29294;SDS011;16305;48.566;8.846;2023-03-31T05:27:14;10.37;;;6.57;;
29294;SDS011;16305;48.566;8.846;2023-03-31T05:29:40;12.53;;;6.60;;
29294;SDS011;16305;48.566;8.846;2023-03-31T05:32:05;15.83;;;6.17;;
29294;SDS011;16305;48.566;8.846;2023-03-31T05:34:31;10.53;;;6.20;;
29294;SDS011;16305;48.566;8.846;2023-03-31T05:36:56;11.33;;;6.77;;
29294;SDS011;16305;48.566;8.846;2023-03-31T05:39:22;12.20;;;6.13;;
29294;SDS011;16305;48.566;8.846;2023-03-31T05:41:48;12.53;;;6.10;;
29294;SDS011;16305;48.566;8.846;2023-03-31T05:44:14;11.97;;;6.40;;
29294;SDS011;16305;48.566;8.846;2023-03-31T05:46:40;11.83;;;6.47;;
29294;SDS011;16305;48.566;8.846;2023-03-31T05:49:06;19.13;;;6.70;;
29294;SDS011;16305;48.566;8.846;2023-03-31T05:51:32;10.77;;;6.90;;
29294;SDS011;16305;48.566;8.846;2023-03-31T05:53:57;10.87;;;7.17;;
29294;SDS011;16305;48.566;8.846;2023-03-31T05:56:23;15.77;;;7.47;;
29294;SDS011;16305;48.566;8.846;2023-03-31T05:58:48;13.00;;;7.87;;
29294;SDS011;16305;48.566;8.846;2023-03-31T06:01:15;15.77;;;8.43;;
29294;SDS011;16305;48.566;8.846;2023-03-31T06:03:45;13.10;;;7.67;;
29294;SDS011;16305;48.566;8.846;2023-03-31T06:06:11;18.97;;;10.00;;
29294;SDS011;16305;48.566;8.846;2023-03-31T06:08:37;17.73;;;11.00;;
29294;SDS011;16305;48.566;8.846;2023-03-31T06:11:03;16.67;;;11.30;;
29294;SDS011;16305;48.566;8.846;2023-03-31T06:13:30;17.67;;;9.60;;
29294;SDS011;16305;48.566;8.846;2023-03-31T06:15:56;15.23;;;9.23;;
29294;SDS011;16305;48.566;8.846;2023-03-31T06:18:23;20.90;;;10.53;;
29294;SDS011;16305;48.566;8.846;2023-03-31T06:20:50;17.33;;;10.17;;
29294;SDS011;16305;48.566;8.846;2023-03-31T06:23:16;35.83;;;20.90;;
29294;SDS011;16305;48.566;8.846;2023-03-31T06:25:41;29.60;;;17.27;;
29294;SDS011;16305;48.566;8.846;2023-03-31T06:28:07;50.17;;;25.70;;
29294;SDS011;16305;48.566;8.846;2023-03-31T06:30:33;21.10;;;12.93;;
29294;SDS011;16305;48.566;8.846;2023-03-31T06:32:59;16.67;;;10.73;;
29294;SDS011;16305;48.566;8.846;2023-03-31T06:35:25;17.93;;;10.87;;
29294;SDS011;16305;48.566;8.846;2023-03-31T06:37:50;17.70;;;10.87;;
29294;SDS011;16305;48.566;8.846;2023-03-31T06:40:16;17.13;;;11.97;;
29294;SDS011;16305;48.566;8.846;2023-03-31T06:42:42;23.83;;;12.30;;
29294;SDS011;16305;48.566;8.846;2023-03-31T06:45:08;17.80;;;9.93;;
29294;SDS011;16305;48.566;8.846;2023-03-31T06:47:33;14.93;;;9.10;;
29294;SDS011;16305;48.566;8.846;2023-03-31T06:50:01;15.77;;;8.50;;
29294;SDS011;16305;48.566;8.846;2023-03-31T06:52:27;10.40;;;5.40;;
29294;SDS011;16305;48.566;8.846;2023-03-31T06:54:53;5.73;;;3.70;;
29294;SDS011;16305;48.566;8.846;2023-03-31T06:57:18;5.10;;;3.40;;
29294;SDS011;16305;48.566;8.846;2023-03-31T06:59:45;5.67;;;2.70;;
29294;SDS011;16305;48.566;8.846;2023-03-31T07:02:10;2.87;;;1.63;;
29294;SDS011;16305;48.566;8.846;2023-03-31T07:04:36;3.80;;;1.60;;
29294;SDS011;16305;48.566;8.846;2023-03-31T07:07:01;1.80;;;1.50;;
29294;SDS011;16305;48.566;8.846;2023-03-31T07:09:27;1.87;;;1.37;;
29294;SDS011;16305;48.566;8.846;2023-03-31T07:11:52;3.33;;;1.43;;
29294;SDS011;16305;48.566;8.846;2023-03-31T07:14:18;2.63;;;1.40;;
29294;SDS011;16305;48.566;8.846;2023-03-31T07:16:43;2.20;;;1.60;;
29294;SDS011;16305;48.566;8.846;2023-03-31T07:19:09;3.03;;;1.10;;
29294;SDS011;16305;48.566;8.846;2023-03-31T07:21:35;3.67;;;1.30;;
29294;SDS011;16305;48.566;8.846;2023-03-31T07:24:03;3.37;;;1.50;;
29294;SDS011;16305;48.566;8.846;2023-03-31T07:26:29;1.70;;;0.97;;
29294;SDS011;16305;48.566;8.846;2023-03-31T07:28:55;1.83;;;1.33;;
29294;SDS011;16305;48.566;8.846;2023-03-31T07:31:21;1.23;;;0.90;;
29294;SDS011;16305;48.566;8.846;2023-03-31T07:33:47;2.33;;;1.30;;
29294;SDS011;16305;48.566;8.846;2023-03-31T07:36:13;3.27;;;1.90;;
29294;SDS011;16305;48.566;8.846;2023-03-31T07:38:39;3.87;;;1.80;;
29294;SDS011;16305;48.566;8.846;2023-03-31T07:41:08;2.07;;;1.67;;
29294;SDS011;16305;48.566;8.846;2023-03-31T07:43:35;1.73;;;1.47;;
29294;SDS011;16305;48.566;8.846;2023-03-31T07:46:01;1.93;;;1.20;;
29294;SDS011;16305;48.566;8.846;2023-03-31T07:48:27;2.47;;;1.10;;
29294;SDS011;16305;48.566;8.846;2023-03-31T07:50:53;1.70;;;1.20;;
29294;SDS011;16305;48.566;8.846;2023-03-31T07:53:19;3.93;;;1.20;;
29294;SDS011;16305;48.566;8.846;2023-03-31T07:55:45;1.30;;;1.20;;
29294;SDS011;16305;48.566;8.846;2023-03-31T07:58:12;4.27;;;1.40;;
29294;SDS011;16305;48.566;8.846;2023-03-31T08:00:37;1.30;;;1.20;;
29294;SDS011;16305;48.566;8.846;2023-03-31T08:03:03;1.97;;;1.30;;
29294;SDS011;16305;48.566;8.846;2023-03-31T08:05:28;2.57;;;1.20;;
29294;SDS011;16305;48.566;8.846;2023-03-31T08:07:54;1.00;;;0.90;;
29294;SDS011;16305;48.566;8.846;2023-03-31T08:10:21;2.33;;;1.03;;
29294;SDS011;16305;48.566;8.846;2023-03-31T08:12:49;1.53;;;1.40;;
29294;SDS011;16305;48.566;8.846;2023-03-31T08:15:14;1.73;;;1.27;;
29294;SDS011;16305;48.566;8.846;2023-03-31T08:17:40;2.33;;;1.37;;
29294;SDS011;16305;48.566;8.846;2023-03-31T08:20:06;1.70;;;1.20;;
29294;SDS011;16305;48.566;8.846;2023-03-31T08:22:34;3.73;;;1.83;;
29294;SDS011;16305;48.566;8.846;2023-03-31T08:25:04;3.27;;;1.53;;
29294;SDS011;16305;48.566;8.846;2023-03-31T08:27:32;3.03;;;1.30;;
29294;SDS011;16305;48.566;8.846;2023-03-31T08:29:59;4.67;;;1.20;;
29294;SDS011;16305;48.566;8.846;2023-03-31T08:32:28;3.83;;;0.90;;
29294;SDS011;16305;48.566;8.846;2023-03-31T08:34:57;3.23;;;1.17;;
29294;SDS011;16305;48.566;8.846;2023-03-31T08:37:23;2.37;;;0.87;;
29294;SDS011;16305;48.566;8.846;2023-03-31T08:39:49;3.63;;;0.87;;
29294;SDS011;16305;48.566;8.846;2023-03-31T08:42:17;3.97;;;1.20;;
29294;SDS011;16305;48.566;8.846;2023-03-31T08:45:00;2.10;;;1.27;;
29294;SDS011;16305;48.566;8.846;2023-03-31T08:47:31;3.43;;;1.10;;
29294;SDS011;16305;48.566;8.846;2023-03-31T08:50:02;3.83;;;1.10;;
29294;SDS011;16305;48.566;8.846;2023-03-31T08:52:36;3.87;;;1.77;;
29294;SDS011;16305;48.566;8.846;2023-03-31T08:55:09;3.10;;;1.10;;
29294;SDS011;16305;48.566;8.846;2023-03-31T08:57:39;2.23;;;1.27;;
29294;SDS011;16305;48.566;8.846;2023-03-31T09:00:18;3.63;;;0.90;;
29294;SDS011;16305;48.566;8.846;2023-03-31T09:02:49;4.00;;;1.20;;
29294;SDS011;16305;48.566;8.846;2023-03-31T09:08:10;1.63;;;0.90;;
29294;SDS011;16305;48.566;8.846;2023-03-31T09:16:01;3.83;;;1.30;;
29294;SDS011;16305;48.566;8.846;2023-03-31T09:18:39;2.57;;;0.80;;
29294;SDS011;16305;48.566;8.846;2023-03-31T09:23:43;3.77;;;0.93;;
29294;SDS011;16305;48.566;8.846;2023-03-31T09:32:28;5.40;;;1.23;;
29294;SDS011;16305;48.566;8.846;2023-03-31T09:35:00;5.03;;;1.20;;
29294;SDS011;16305;48.566;8.846;2023-03-31T09:37:38;2.47;;;0.97;;
29294;SDS011;16305;48.566;8.846;2023-03-31T09:40:04;6.40;;;1.60;;
29294;SDS011;16305;48.566;8.846;2023-03-31T09:42:32;7.17;;;2.00;;
29294;SDS011;16305;48.566;8.846;2023-03-31T09:45:01;3.20;;;0.97;;
29294;SDS011;16305;48.566;8.846;2023-03-31T09:47:31;5.33;;;1.17;;
29294;SDS011;16305;48.566;8.846;2023-03-31T09:49:57;7.27;;;1.33;;
29294;SDS011;16305;48.566;8.846;2023-03-31T09:55:14;3.77;;;1.30;;
29294;SDS011;16305;48.566;8.846;2023-03-31T09:57:42;3.77;;;1.13;;
29294;SDS011;16305;48.566;8.846;2023-03-31T10:02:54;4.27;;;1.27;;
29294;SDS011;16305;48.566;8.846;2023-03-31T10:05:28;5.90;;;1.40;;
29294;SDS011;16305;48.566;8.846;2023-03-31T10:11:29;3.33;;;1.00;;
29294;SDS011;16305;48.566;8.846;2023-03-31T10:16:34;6.00;;;1.10;;
29294;SDS011;16305;48.566;8.846;2023-03-31T10:19:11;4.80;;;1.17;;
29294;SDS011;16305;48.566;8.846;2023-03-31T10:21:46;8.17;;;1.40;;
29294;SDS011;16305;48.566;8.846;2023-03-31T10:24:19;6.90;;;1.00;;
29294;SDS011;16305;48.566;8.846;2023-03-31T10:26:48;9.00;;;1.37;;
29294;SDS011;16305;48.566;8.846;2023-03-31T10:29:21;6.03;;;1.43;;
29294;SDS011;16305;48.566;8.846;2023-03-31T10:31:50;4.07;;;1.07;;
29294;SDS011;16305;48.566;8.846;2023-03-31T10:34:16;8.13;;;1.53;;
29294;SDS011;16305;48.566;8.846;2023-03-31T10:36:49;4.30;;;1.00;;
29294;SDS011;16305;48.566;8.846;2023-03-31T10:39:18;6.50;;;1.60;;
29294;SDS011;16305;48.566;8.846;2023-03-31T10:41:50;5.53;;;0.97;;
29294;SDS011;16305;48.566;8.846;2023-03-31T10:49:38;3.17;;;1.17;;
29294;SDS011;16305;48.566;8.846;2023-03-31T10:52:27;2.47;;;1.07;;
29294;SDS011;16305;48.566;8.846;2023-03-31T10:54:53;9.47;;;1.43;;
29294;SDS011;16305;48.566;8.846;2023-03-31T10:57:56;6.90;;;1.00;;
29294;SDS011;16305;48.566;8.846;2023-03-31T11:00:31;3.83;;;0.83;;
29294;SDS011;16305;48.566;8.846;2023-03-31T11:03:36;4.20;;;1.33;;
29294;SDS011;16305;48.566;8.846;2023-03-31T11:06:20;7.60;;;1.20;;
29294;SDS011;16305;48.566;8.846;2023-03-31T11:08:53;4.53;;;0.87;;
29294;SDS011;16305;48.566;8.846;2023-03-31T11:11:37;8.33;;;1.70;;
29294;SDS011;16305;48.566;8.846;2023-03-31T11:14:19;6.67;;;1.10;;
29294;SDS011;16305;48.566;8.846;2023-03-31T11:17:08;4.57;;;0.93;;
29294;SDS011;16305;48.566;8.846;2023-03-31T11:20:27;2.10;;;1.07;;
29294;SDS011;16305;48.566;8.846;2023-03-31T11:25:37;2.23;;;0.40;;
29294;SDS011;16305;48.566;8.846;2023-03-31T11:36:52;1.43;;;0.43;;
29294;SDS011;16305;48.566;8.846;2023-03-31T11:39:30;1.17;;;0.53;;
29294;SDS011;16305;48.566;8.846;2023-03-31T11:42:15;1.43;;;0.50;;
29294;SDS011;16305;48.566;8.846;2023-03-31T11:44:48;4.10;;;0.33;;
29294;SDS011;16305;48.566;8.846;2023-03-31T11:47:30;1.97;;;0.30;;
29294;SDS011;16305;48.566;8.846;2023-03-31T11:50:08;0.63;;;0.30;;
29294;SDS011;16305;48.566;8.846;2023-03-31T11:52:37;2.63;;;0.57;;
29294;SDS011;16305;48.566;8.846;2023-03-31T11:55:14;2.63;;;0.50;;
29294;SDS011;16305;48.566;8.846;2023-03-31T12:00:36;2.40;;;0.60;;
29294;SDS011;16305;48.566;8.846;2023-03-31T12:03:09;1.80;;;0.50;;
29294;SDS011;16305;48.566;8.846;2023-03-31T12:05:45;3.63;;;0.90;;
29294;SDS011;16305;48.566;8.846;2023-03-31T12:08:19;3.30;;;0.80;;
29294;SDS011;16305;48.566;8.846;2023-03-31T12:10:54;0.97;;;0.50;;
29294;SDS011;16305;48.566;8.846;2023-03-31T12:16:17;1.97;;;0.70;;
29294;SDS011;16305;48.566;8.846;2023-03-31T12:19:14;1.80;;;0.80;;
29294;SDS011;16305;48.566;8.846;2023-03-31T12:21:48;2.13;;;0.50;;
29294;SDS011;16305;48.566;8.846;2023-03-31T12:24:39;2.20;;;0.80;;
29294;SDS011;16305;48.566;8.846;2023-03-31T12:27:24;2.10;;;0.43;;
29294;SDS011;16305;48.566;8.846;2023-03-31T12:32:25;2.83;;;0.60;;
29294;SDS011;16305;48.566;8.846;2023-03-31T12:34:55;1.40;;;0.50;;
29294;SDS011;16305;48.566;8.846;2023-03-31T12:40:22;1.77;;;0.60;;
29294;SDS011;16305;48.566;8.846;2023-03-31T12:46:00;3.67;;;1.13;;
29294;SDS011;16305;48.566;8.846;2023-03-31T12:51:19;2.70;;;0.93;;
29294;SDS011;16305;48.566;8.846;2023-03-31T12:59:39;2.77;;;0.80;;
29294;SDS011;16305;48.566;8.846;2023-03-31T13:04:38;6.53;;;1.40;;
29294;SDS011;16305;48.566;8.846;2023-03-31T13:07:11;7.13;;;1.50;;
29294;SDS011;16305;48.566;8.846;2023-03-31T13:09:58;3.33;;;0.70;;
29294;SDS011;16305;48.566;8.846;2023-03-31T13:13:10;4.73;;;1.07;;
29294;SDS011;16305;48.566;8.846;2023-03-31T13:15:38;4.20;;;1.07;;
29294;SDS011;16305;48.566;8.846;2023-03-31T13:18:06;3.87;;;0.93;;
29294;SDS011;16305;48.566;8.846;2023-03-31T13:20:43;5.43;;;1.20;;
29294;SDS011;16305;48.566;8.846;2023-03-31T13:25:39;8.17;;;1.50;;
29294;SDS011;16305;48.566;8.846;2023-03-31T13:28:16;5.37;;;1.17;;
29294;SDS011;16305;48.566;8.846;2023-03-31T13:31:20;4.90;;;1.20;;
29294;SDS011;16305;48.566;8.846;2023-03-31T13:33:58;1.57;;;0.73;;
29294;SDS011;16305;48.566;8.846;2023-03-31T13:36:37;1.37;;;0.50;;
29294;SDS011;16305;48.566;8.846;2023-03-31T13:42:40;1.20;;;0.37;;
29294;SDS011;16305;48.566;8.846;2023-03-31T13:48:38;1.03;;;0.50;;
29294;SDS011;16305;48.566;8.846;2023-03-31T14:08:44;0.90;;;0.77;;
29294;SDS011;16305;48.566;8.846;2023-03-31T14:11:16;1.00;;;0.70;;
29294;SDS011;16305;48.566;8.846;2023-03-31T14:16:55;1.73;;;0.70;;
29294;SDS011;16305;48.566;8.846;2023-03-31T14:22:15;0.40;;;0.40;;
29294;SDS011;16305;48.566;8.846;2023-03-31T14:25:10;1.03;;;0.73;;
29294;SDS011;16305;48.566;8.846;2023-03-31T14:36:35;5.20;;;1.40;;
29294;SDS011;16305;48.566;8.846;2023-03-31T14:39:04;2.43;;;1.30;;
29294;SDS011;16305;48.566;8.846;2023-03-31T14:41:33;4.00;;;0.67;;
29294;SDS011;16305;48.566;8.846;2023-03-31T14:44:02;1.67;;;1.37;;
29294;SDS011;16305;48.566;8.846;2023-03-31T14:46:30;2.30;;;0.60;;
29294;SDS011;16305;48.566;8.846;2023-03-31T14:49:05;1.80;;;0.50;;
29294;SDS011;16305;48.566;8.846;2023-03-31T14:51:41;1.63;;;0.60;;
29294;SDS011;16305;48.566;8.846;2023-03-31T14:54:13;1.73;;;0.50;;
29294;SDS011;16305;48.566;8.846;2023-03-31T14:56:41;1.80;;;0.70;;
29294;SDS011;16305;48.566;8.846;2023-03-31T14:59:08;2.03;;;0.60;;
29294;SDS011;16305;48.566;8.846;2023-03-31T15:01:34;1.10;;;0.50;;
29294;SDS011;16305;48.566;8.846;2023-03-31T15:04:12;1.33;;;0.47;;
29294;SDS011;16305;48.566;8.846;2023-03-31T15:06:40;2.03;;;0.67;;
29294;SDS011;16305;48.566;8.846;2023-03-31T15:09:09;1.97;;;0.60;;
29294;SDS011;16305;48.566;8.846;2023-03-31T15:11:40;2.80;;;0.60;;
29294;SDS011;16305;48.566;8.846;2023-03-31T15:14:07;1.03;;;0.70;;
29294;SDS011;16305;48.566;8.846;2023-03-31T15:16:43;1.57;;;0.60;;
29294;SDS011;16305;48.566;8.846;2023-03-31T15:19:17;2.97;;;0.80;;
29294;SDS011;16305;48.566;8.846;2023-03-31T15:21:43;2.07;;;0.80;;
29294;SDS011;16305;48.566;8.846;2023-03-31T15:24:11;4.87;;;0.50;;
29294;SDS011;16305;48.566;8.846;2023-03-31T15:26:39;2.80;;;0.47;;
29294;SDS011;16305;48.566;8.846;2023-03-31T15:31:40;2.50;;;0.60;;
29294;SDS011;16305;48.566;8.846;2023-03-31T15:36:52;2.07;;;0.53;;
29294;SDS011;16305;48.566;8.846;2023-03-31T15:39:19;4.47;;;0.73;;
29294;SDS011;16305;48.566;8.846;2023-03-31T15:41:46;3.30;;;0.57;;
29294;SDS011;16305;48.566;8.846;2023-03-31T15:47:06;3.07;;;0.70;;
29294;SDS011;16305;48.566;8.846;2023-03-31T15:49:45;2.17;;;0.77;;
29294;SDS011;16305;48.566;8.846;2023-03-31T15:55:23;2.67;;;0.80;;
29294;SDS011;16305;48.566;8.846;2023-03-31T15:57:55;3.07;;;1.00;;
29294;SDS011;16305;48.566;8.846;2023-03-31T16:03:13;3.63;;;1.00;;
29294;SDS011;16305;48.566;8.846;2023-03-31T16:05:59;3.30;;;1.30;;
29294;SDS011;16305;48.566;8.846;2023-03-31T16:08:39;4.63;;;1.07;;
29294;SDS011;16305;48.566;8.846;2023-03-31T16:11:12;5.07;;;1.13;;
29294;SDS011;16305;48.566;8.846;2023-03-31T16:13:44;2.50;;;0.80;;
29294;SDS011;16305;48.566;8.846;2023-03-31T16:16:16;5.87;;;1.50;;
29294;SDS011;16305;48.566;8.846;2023-03-31T16:18:50;2.67;;;0.80;;
29294;SDS011;16305;48.566;8.846;2023-03-31T16:21:35;6.93;;;1.37;;
29294;SDS011;16305;48.566;8.846;2023-03-31T16:24:05;4.90;;;1.93;;
29294;SDS011;16305;48.566;8.846;2023-03-31T16:26:31;5.17;;;1.40;;
29294;SDS011;16305;48.566;8.846;2023-03-31T16:28:58;2.73;;;1.10;;
29294;SDS011;16305;48.566;8.846;2023-03-31T16:34:01;10.63;;;5.73;;
29294;SDS011;16305;48.566;8.846;2023-03-31T16:36:28;15.33;;;8.37;;
29294;SDS011;16305;48.566;8.846;2023-03-31T16:38:56;3.37;;;1.00;;
29294;SDS011;16305;48.566;8.846;2023-03-31T16:41:23;3.40;;;1.30;;
29294;SDS011;16305;48.566;8.846;2023-03-31T16:43:49;3.60;;;0.87;;
29294;SDS011;16305;48.566;8.846;2023-03-31T16:46:18;8.17;;;3.87;;
29294;SDS011;16305;48.566;8.846;2023-03-31T16:48:44;4.80;;;1.97;;
29294;SDS011;16305;48.566;8.846;2023-03-31T16:51:10;2.03;;;1.07;;
29294;SDS011;16305;48.566;8.846;2023-03-31T16:53:35;1.23;;;1.03;;
29294;SDS011;16305;48.566;8.846;2023-03-31T16:56:02;1.77;;;0.93;;
29294;SDS011;16305;48.566;8.846;2023-03-31T16:58:28;3.07;;;0.90;;
29294;SDS011;16305;48.566;8.846;2023-03-31T17:00:54;2.30;;;1.50;;
29294;SDS011;16305;48.566;8.846;2023-03-31T17:03:21;4.20;;;2.40;;
29294;SDS011;16305;48.566;8.846;2023-03-31T17:05:50;1.90;;;1.50;;
29294;SDS011;16305;48.566;8.846;2023-03-31T17:08:17;5.37;;;3.33;;
29294;SDS011;16305;48.566;8.846;2023-03-31T17:10:52;2.97;;;2.47;;
29294;SDS011;16305;48.566;8.846;2023-03-31T17:13:18;2.03;;;1.63;;
29294;SDS011;16305;48.566;8.846;2023-03-31T17:15:44;3.73;;;2.20;;
29294;SDS011;16305;48.566;8.846;2023-03-31T17:18:10;3.83;;;2.10;;
29294;SDS011;16305;48.566;8.846;2023-03-31T17:20:35;3.13;;;2.60;;
29294;SDS011;16305;48.566;8.846;2023-03-31T17:23:01;3.83;;;1.50;;
29294;SDS011;16305;48.566;8.846;2023-03-31T17:25:27;3.50;;;1.80;;
29294;SDS011;16305;48.566;8.846;2023-03-31T17:27:52;4.23;;;1.60;;
29294;SDS011;16305;48.566;8.846;2023-03-31T17:30:19;5.13;;;1.73;;
29294;SDS011;16305;48.566;8.846;2023-03-31T17:32:45;4.70;;;1.93;;
29294;SDS011;16305;48.566;8.846;2023-03-31T17:35:12;2.67;;;1.70;;
29294;SDS011;16305;48.566;8.846;2023-03-31T17:37:44;3.57;;;1.40;;
29294;SDS011;16305;48.566;8.846;2023-03-31T17:40:10;1.73;;;0.93;;
29294;SDS011;16305;48.566;8.846;2023-03-31T17:42:36;4.23;;;1.40;;